Time;durP1;ratioP1;P1;durP2;ratioP2;P2;SDS_P1;SDS_P2;PMS_P1;PMS_P2;Temp;Humidity;BMP_temperature;BMP_pressure;BME280_temperature;BME280_humidity;BME280_pressure;Samples;Min_cycle;Max_cycle;Signal;HPM_P1;HPM_P2
2021/09/12 00:01:18;;;;;;;7.30;6.28;;;23.00;96.70;;;;;;4959558;28;20050;-75
2021/09/12 00:03:48;;;;;;;12.07;6.82;;;23.00;96.70;;;;;;4962563;28;20500;-75
2021/09/12 00:06:17;;;;;;;7.90;6.10;;;22.90;96.70;;;;;;4962245;28;20054;-75
2021/09/12 00:08:45;;;;;;;7.97;6.40;;;22.80;96.70;;;;;;4962467;28;20057;-76
2021/09/12 00:11:13;;;;;;;6.85;5.95;;;22.80;96.70;;;;;;4964317;28;20046;-75
2021/09/12 00:17:28;;;;;;;9.95;6.55;;;22.90;96.70;;;;;;4966966;28;20035;-75
2021/09/12 00:20:08;;;;;;;8.48;6.10;;;22.80;96.70;;;;;;4964469;28;20078;-75
2021/09/12 00:22:37;;;;;;;7.90;6.47;;;22.80;96.70;;;;;;4946282;28;20047;-75
2021/09/12 00:25:07;;;;;;;7.93;6.18;;;22.70;96.70;;;;;;4963352;28;20038;-75
2021/09/12 00:27:36;;;;;;;7.72;6.18;;;22.80;96.70;;;;;;4962356;28;20105;-75
2021/09/12 00:30:06;;;;;;;7.68;6.97;;;22.80;96.70;;;;;;4962308;28;20434;-75
2021/09/12 00:32:35;;;;;;;8.05;7.03;;;22.80;96.70;;;;;;4976520;28;20513;-75
2021/09/12 00:35:14;;;;;;;8.00;6.72;;;22.80;96.70;;;;;;4962044;28;20532;-75
2021/09/12 00:37:43;;;;;;;7.82;6.63;;;22.90;96.70;;;;;;4958790;28;20042;-75
2021/09/12 00:40:12;;;;;;;7.70;6.68;;;22.80;96.70;;;;;;4962337;28;20101;-75
2021/09/12 00:42:40;;;;;;;7.85;6.90;;;22.70;96.70;;;;;;4959890;28;20460;-75
2021/09/12 00:45:09;;;;;;;7.95;7.20;;;22.70;96.70;;;;;;4958491;28;20042;-75
2021/09/12 00:47:38;;;;;;;7.65;6.95;;;22.80;96.70;;;;;;4949061;28;20110;-75
2021/09/12 00:50:07;;;;;;;7.28;6.55;;;22.70;96.70;;;;;;4960534;28;20129;-75
2021/09/12 00:52:43;;;;;;;7.18;6.55;;;22.70;96.70;;;;;;4963908;28;20035;-75
2021/09/12 00:55:33;;;;;;;7.45;6.75;;;22.70;96.70;;;;;;4945324;28;20043;-76
2021/09/12 00:58:02;;;;;;;7.70;6.90;;;22.60;96.70;;;;;;4949789;28;20054;-76
2021/09/12 01:00:31;;;;;;;7.53;6.65;;;22.70;96.70;;;;;;4959860;28;20054;-75
2021/09/12 01:02:59;;;;;;;9.35;6.97;;;22.60;96.70;;;;;;4961654;28;20042;-75
2021/09/12 01:05:28;;;;;;;7.68;6.88;;;22.50;96.70;;;;;;4960483;28;20051;-76
2021/09/12 01:07:58;;;;;;;7.15;6.43;;;22.40;96.70;;;;;;4962355;28;20042;-76
2021/09/12 01:10:26;;;;;;;6.38;5.78;;;22.40;96.70;;;;;;4959527;28;20062;-75
2021/09/12 01:12:54;;;;;;;7.60;6.63;;;22.20;96.70;;;;;;4959755;28;20129;-76
2021/09/12 01:19:25;;;;;;;7.65;6.72;;;22.20;96.70;;;;;;4913441;29;20152;-75
2021/09/12 01:21:55;;;;;;;6.95;6.38;;;22.20;96.70;;;;;;4914624;29;20079;-76
2021/09/12 01:24:25;;;;;;;7.43;6.57;;;22.10;96.70;;;;;;4917527;29;20044;-75
2021/09/12 01:26:54;;;;;;;7.15;6.45;;;22.10;96.70;;;;;;4902990;29;20480;-75
2021/09/12 01:33:01;;;;;;;7.20;6.43;;;22.10;96.70;;;;;;4914794;29;20055;-74
2021/09/12 01:35:29;;;;;;;19.83;7.25;;;22.00;96.70;;;;;;4918144;29;20096;-74
2021/09/12 01:37:58;;;;;;;7.45;6.75;;;22.10;96.70;;;;;;4905604;29;20601;-74
2021/09/12 01:41:06;;;;;;;10.32;7.13;;;22.20;96.70;;;;;;4881250;29;20048;-74
2021/09/12 01:43:36;;;;;;;8.60;6.93;;;22.20;96.70;;;;;;4922027;29;20051;-74
2021/09/12 01:46:25;;;;;;;8.05;7.25;;;22.10;96.70;;;;;;4918620;29;20522;-74
2021/09/12 01:48:55;;;;;;;9.55;7.45;;;22.00;96.70;;;;;;4912306;29;20621;-74
2021/09/12 01:51:41;;;;;;;10.07;7.03;;;21.90;96.70;;;;;;4900709;29;20305;-74
2021/09/12 01:54:10;;;;;;;8.88;7.00;;;21.80;96.70;;;;;;4919882;29;20124;-74
2021/09/12 01:56:56;;;;;;;7.95;6.68;;;21.90;96.70;;;;;;4957427;28;20433;-74
2021/09/12 01:59:26;;;;;;;7.78;6.97;;;21.80;96.70;;;;;;4976431;28;20043;-74
2021/09/12 02:01:55;;;;;;;9.85;7.20;;;21.90;96.70;;;;;;4958757;28;20047;-74
2021/09/12 02:04:24;;;;;;;11.55;7.15;;;21.90;96.70;;;;;;4955106;28;20564;-75
2021/09/12 02:07:42;;;;;;;7.93;6.97;;;22.00;96.70;;;;;;4955256;28;20074;-75
2021/09/12 02:10:11;;;;;;;9.00;6.75;;;21.90;96.70;;;;;;4955734;28;20085;-75
2021/09/12 02:12:48;;;;;;;8.32;7.15;;;21.90;96.70;;;;;;4958405;28;20043;-76
2021/09/12 02:15:18;;;;;;;10.50;7.18;;;21.90;96.70;;;;;;4955388;28;20466;-75
2021/09/12 02:17:46;;;;;;;8.38;7.55;;;21.90;96.70;;;;;;4963720;28;20043;-75
2021/09/12 02:20:14;;;;;;;8.30;6.35;;;21.90;96.70;;;;;;4962604;28;20047;-75
2021/09/12 02:23:22;;;;;;;8.85;7.15;;;21.80;96.70;;;;;;4961446;28;20046;-75
2021/09/12 02:25:51;;;;;;;8.10;6.63;;;21.80;96.70;;;;;;4959965;28;20051;-76
2021/09/12 02:28:20;;;;;;;7.70;6.90;;;21.80;96.70;;;;;;4964892;28;20039;-75
2021/09/12 02:30:51;;;;;;;8.38;7.28;;;21.70;96.70;;;;;;4960776;28;20138;-75
2021/09/12 02:33:20;;;;;;;9.05;7.18;;;21.70;96.70;;;;;;4957727;28;20034;-75
2021/09/12 02:35:50;;;;;;;8.13;7.20;;;21.70;96.70;;;;;;4961128;28;20043;-75
2021/09/12 02:38:19;;;;;;;8.00;6.85;;;21.60;96.70;;;;;;4964481;28;20090;-75
2021/09/12 02:40:47;;;;;;;8.75;6.82;;;21.60;96.70;;;;;;4957996;28;20050;-75
2021/09/12 02:43:17;;;;;;;7.60;6.82;;;21.60;96.70;;;;;;4960892;28;20077;-76
2021/09/12 02:45:46;;;;;;;11.07;6.97;;;21.50;96.70;;;;;;4964157;28;20150;-75
2021/09/12 02:48:18;;;;;;;7.47;6.57;;;21.50;96.70;;;;;;4974276;28;20042;-76
2021/09/12 02:51:32;;;;;;;9.75;6.65;;;21.50;96.70;;;;;;4916108;29;20478;-75
2021/09/12 02:57:33;;;;;;;7.90;6.90;;;21.40;96.70;;;;;;4908651;29;20368;-75
2021/09/12 03:00:07;;;;;;;8.30;6.38;;;21.40;96.70;;;;;;4907373;29;20375;-75
2021/09/12 03:02:35;;;;;;;7.32;6.63;;;21.40;96.70;;;;;;4907080;29;20478;-76
2021/09/12 03:05:07;;;;;;;9.15;7.55;;;21.40;96.70;;;;;;4918148;29;20131;-75
2021/09/12 03:07:35;;;;;;;10.05;7.45;;;21.30;96.70;;;;;;4910875;29;20430;-75
2021/09/12 03:10:04;;;;;;;10.27;7.38;;;21.20;96.70;;;;;;4894657;29;20191;-75
2021/09/12 03:12:34;;;;;;;7.78;6.93;;;21.20;96.70;;;;;;4923158;29;20043;-75
2021/09/12 03:15:05;;;;;;;8.15;6.65;;;21.20;96.70;;;;;;4926284;29;20047;-76
2021/09/12 03:17:35;;;;;;;11.10;7.85;;;21.10;96.70;;;;;;4924520;29;20283;-75
2021/09/12 03:20:06;;;;;;;8.65;7.28;;;21.20;96.70;;;;;;4923559;29;20100;-76
2021/09/12 03:23:03;;;;;;;7.95;7.15;;;21.20;96.70;;;;;;4977979;28;20142;-75
2021/09/12 03:25:31;;;;;;;;;;;21.20;96.70;;;;;;4961159;28;20067;-75
2021/09/12 03:28:30;;;;;;;7.68;6.88;;;21.10;96.70;;;;;;4966035;28;19936;-75
2021/09/12 03:30:59;;;;;;;8.40;7.45;;;21.10;96.70;;;;;;4964715;28;20094;-75
2021/09/12 03:33:39;;;;;;;7.88;7.07;;;21.10;96.70;;;;;;4970434;28;20597;-75
2021/09/12 03:36:10;;;;;;;7.90;7.10;;;21.20;96.70;;;;;;4960688;28;20066;-76
2021/09/12 03:38:53;;;;;;;9.38;7.60;;;21.10;96.70;;;;;;4963581;28;20032;-76
2021/09/12 03:41:21;;;;;;;8.63;7.72;;;21.10;96.70;;;;;;4958405;28;20051;-75
2021/09/12 03:43:50;;;;;;;7.22;6.53;;;21.00;96.70;;;;;;4958529;28;20512;-75
2021/09/12 03:46:20;;;;;;;8.32;7.55;;;20.90;96.70;;;;;;4967010;28;20110;-75
2021/09/12 03:49:29;;;;;;;8.00;6.97;;;20.90;96.70;;;;;;4962436;28;20047;-75
2021/09/12 03:52:01;;;;;;;9.15;8.27;;;21.00;96.70;;;;;;4987301;28;20058;-76
2021/09/12 03:54:29;;;;;;;8.65;7.07;;;21.00;96.70;;;;;;4961795;28;20043;-75
2021/09/12 03:57:04;;;;;;;8.68;7.82;;;20.90;96.70;;;;;;4963151;28;20564;-75
2021/09/12 03:59:32;;;;;;;8.93;7.20;;;20.80;96.70;;;;;;4970475;28;20365;-75
2021/09/12 04:02:00;;;;;;;7.93;7.13;;;20.90;96.70;;;;;;4953902;28;20105;-76
2021/09/12 04:04:29;;;;;;;7.53;6.85;;;20.90;96.70;;;;;;4976921;28;20055;-74
2021/09/12 04:06:57;;;;;;;8.88;7.55;;;20.90;96.70;;;;;;4959869;28;20143;-75
2021/09/12 04:09:27;;;;;;;8.18;7.45;;;20.80;96.70;;;;;;4962633;28;20055;-74
2021/09/12 04:11:56;;;;;;;8.20;7.40;;;20.80;96.70;;;;;;4961487;28;20062;-74
2021/09/12 04:14:24;;;;;;;9.50;7.72;;;20.80;96.70;;;;;;4965903;28;20039;-74
2021/09/12 04:16:53;;;;;;;8.40;7.28;;;20.80;96.70;;;;;;4963794;28;20066;-74
2021/09/12 04:19:21;;;;;;;7.57;6.93;;;20.80;96.70;;;;;;4963112;28;20095;-74
2021/09/12 04:21:49;;;;;;;7.82;7.20;;;20.70;96.70;;;;;;4957415;28;20670;-74
2021/09/12 04:24:18;;;;;;;8.40;7.55;;;20.70;96.70;;;;;;4968624;28;20387;-75
2021/09/12 04:26:48;;;;;;;9.23;8.38;;;20.70;96.70;;;;;;4963166;28;20050;-74
2021/09/12 04:29:17;;;;;;;9.10;7.20;;;20.70;96.70;;;;;;4965243;28;20493;-74
2021/09/12 04:31:46;;;;;;;8.10;7.28;;;20.70;96.70;;;;;;4966081;28;20502;-74
2021/09/12 04:34:14;;;;;;;8.40;7.50;;;20.70;96.70;;;;;;4963048;28;20045;-75
2021/09/12 04:36:43;;;;;;;8.40;7.57;;;20.70;96.70;;;;;;4965014;28;20513;-74
2021/09/12 04:39:11;;;;;;;7.75;7.05;;;20.60;96.70;;;;;;4960777;28;20062;-74
2021/09/12 04:41:40;;;;;;;8.73;7.03;;;20.70;96.70;;;;;;4959373;28;20046;-74
2021/09/12 04:44:10;;;;;;;8.23;7.50;;;20.70;96.70;;;;;;4961517;28;20059;-75
2021/09/12 04:46:38;;;;;;;7.93;7.22;;;20.60;96.70;;;;;;4962155;28;20070;-75
2021/09/12 04:49:07;;;;;;;8.98;7.22;;;20.50;96.70;;;;;;4963722;28;20046;-74
2021/09/12 04:51:36;;;;;;;8.85;7.00;;;20.50;96.70;;;;;;4959605;28;20105;-74
2021/09/12 04:54:05;;;;;;;6.70;6.07;;;20.50;96.70;;;;;;4961333;28;20134;-74
2021/09/12 04:56:34;;;;;;;8.75;7.85;;;20.60;96.70;;;;;;4963056;28;20494;-75
2021/09/12 04:59:02;;;;;;;8.57;7.70;;;20.50;96.70;;;;;;4947712;28;20054;-74
2021/09/12 05:01:34;;;;;;;8.20;7.43;;;20.60;96.70;;;;;;4960462;28;20047;-74
2021/09/12 05:04:03;;;;;;;8.50;7.70;;;20.60;96.70;;;;;;4971485;28;20270;-75
2021/09/12 05:06:32;;;;;;;8.30;7.50;;;20.50;96.70;;;;;;4961173;28;20051;-75
2021/09/12 05:09:00;;;;;;;8.68;6.70;;;20.60;96.70;;;;;;4960361;28;20525;-75
2021/09/12 05:11:29;;;;;;;9.18;6.90;;;20.60;96.70;;;;;;4962745;28;20042;-75
2021/09/12 05:13:58;;;;;;;7.90;7.07;;;20.70;96.70;;;;;;4960324;28;20109;-75
2021/09/12 05:16:26;;;;;;;10.43;7.45;;;20.70;96.70;;;;;;4963127;28;20057;-74
2021/09/12 05:18:56;;;;;;;7.63;6.88;;;20.60;96.70;;;;;;4959965;28;20142;-75
2021/09/12 05:21:26;;;;;;;8.65;7.25;;;20.60;96.70;;;;;;4962834;28;20034;-74
2021/09/12 05:23:55;;;;;;;7.93;7.13;;;20.70;96.70;;;;;;4961493;28;20047;-75
2021/09/12 05:26:23;;;;;;;7.30;6.60;;;20.50;96.70;;;;;;4964827;28;20093;-74
2021/09/12 05:28:52;;;;;;;8.20;7.28;;;20.50;96.70;;;;;;4960979;28;20090;-74
2021/09/12 05:31:20;;;;;;;10.43;7.40;;;20.50;96.70;;;;;;4977887;28;20061;-75
2021/09/12 05:33:49;;;;;;;7.90;6.93;;;20.50;96.70;;;;;;4962734;28;20055;-75
2021/09/12 05:36:19;;;;;;;8.55;7.35;;;20.60;96.70;;;;;;4973486;28;20096;-75
2021/09/12 05:38:48;;;;;;;8.15;7.35;;;20.50;96.70;;;;;;4956828;28;20075;-75
2021/09/12 05:41:17;;;;;;;9.40;7.68;;;20.60;96.70;;;;;;4961062;28;20037;-75
2021/09/12 05:43:46;;;;;;;8.95;7.60;;;20.60;96.70;;;;;;4959534;28;20093;-75
2021/09/12 05:46:14;;;;;;;9.05;7.40;;;20.50;96.70;;;;;;4959744;28;20046;-74
2021/09/12 05:48:43;;;;;;;8.13;6.82;;;20.60;96.70;;;;;;4959602;28;20050;-75
2021/09/12 05:51:12;;;;;;;10.10;6.95;;;20.60;96.70;;;;;;4956620;28;20082;-74
2021/09/12 05:53:42;;;;;;;7.53;6.82;;;20.60;96.70;;;;;;4942835;28;20414;-74
2021/09/12 05:56:11;;;;;;;7.93;7.13;;;20.70;96.70;;;;;;4960010;28;20039;-74
2021/09/12 05:58:39;;;;;;;8.55;7.47;;;20.70;96.70;;;;;;4974058;28;20043;-74
2021/09/12 06:01:08;;;;;;;8.98;7.18;;;20.70;96.70;;;;;;4963401;28;20142;-74
2021/09/12 06:03:37;;;;;;;11.02;7.50;;;20.70;96.70;;;;;;4961139;28;20414;-74
2021/09/12 06:06:06;;;;;;;7.88;7.07;;;20.70;96.70;;;;;;4963530;28;20054;-74
2021/09/12 06:08:35;;;;;;;7.50;6.80;;;20.80;96.70;;;;;;4964526;28;20047;-74
2021/09/12 06:11:05;;;;;;;7.80;6.95;;;20.70;96.70;;;;;;4969530;28;20587;-75
2021/09/12 06:13:33;;;;;;;9.38;6.95;;;20.70;96.70;;;;;;4959037;28;20516;-75
2021/09/12 06:16:02;;;;;;;7.50;6.80;;;20.80;96.70;;;;;;4969325;28;20050;-74
2021/09/12 06:18:31;;;;;;;9.02;8.10;;;20.80;96.70;;;;;;4974848;28;20110;-75
2021/09/12 06:20:59;;;;;;;10.40;7.93;;;20.80;96.70;;;;;;4962256;28;20035;-74
2021/09/12 06:23:28;;;;;;;11.30;8.13;;;20.90;96.70;;;;;;4960914;28;20050;-75
2021/09/12 06:25:57;;;;;;;10.88;8.27;;;20.80;96.70;;;;;;4962873;28;20122;-74
2021/09/12 06:28:27;;;;;;;10.57;7.80;;;20.70;96.70;;;;;;4964209;28;20051;-75
2021/09/12 06:30:55;;;;;;;11.50;8.25;;;20.70;96.70;;;;;;4962859;28;20051;-75
2021/09/12 06:33:24;;;;;;;10.25;8.75;;;20.60;96.70;;;;;;4964836;28;20062;-75
2021/09/12 06:35:53;;;;;;;9.27;8.38;;;20.70;96.70;;;;;;4964540;28;20452;-74
2021/09/12 06:38:21;;;;;;;10.38;8.80;;;20.60;96.70;;;;;;4962050;28;20047;-74
2021/09/12 06:40:50;;;;;;;9.32;8.20;;;20.70;96.70;;;;;;4972993;28;20062;-74
2021/09/12 06:43:19;;;;;;;8.65;7.40;;;21.00;96.70;;;;;;4965417;28;20524;-74
2021/09/12 06:45:49;;;;;;;9.15;8.23;;;21.10;96.70;;;;;;4961492;28;20039;-75
2021/09/12 06:48:18;;;;;;;9.07;8.20;;;21.10;96.70;;;;;;4962829;28;20041;-75
2021/09/12 06:50:47;;;;;;;9.10;8.18;;;21.10;96.70;;;;;;4961481;28;20051;-75
2021/09/12 06:53:16;;;;;;;9.15;7.97;;;21.20;96.70;;;;;;4963619;28;20078;-75
2021/09/12 06:55:44;;;;;;;10.90;8.32;;;21.20;96.70;;;;;;4961942;28;20139;-74
2021/09/12 06:58:13;;;;;;;11.68;7.80;;;21.20;96.70;;;;;;4947489;28;20150;-75
2021/09/12 07:00:41;;;;;;;11.80;7.35;;;21.30;96.70;;;;;;4961047;28;20049;-74
2021/09/12 07:03:12;;;;;;;9.20;7.75;;;21.30;96.70;;;;;;4964624;28;20095;-75
2021/09/12 07:05:41;;;;;;;10.70;8.77;;;21.30;96.70;;;;;;4960701;28;20054;-74
2021/09/12 07:08:10;;;;;;;9.57;8.50;;;21.30;96.70;;;;;;4965552;28;20111;-74
2021/09/12 07:10:38;;;;;;;8.52;7.72;;;21.40;96.70;;;;;;4963896;28;20565;-75
2021/09/12 07:13:07;;;;;;;9.15;7.80;;;21.40;96.70;;;;;;4979547;28;20077;-74
2021/09/12 07:15:36;;;;;;;8.88;7.43;;;21.50;96.70;;;;;;4964183;28;20045;-74
2021/09/12 07:18:04;;;;;;;8.25;7.45;;;21.60;96.70;;;;;;4955914;28;20417;-74
2021/09/12 07:20:35;;;;;;;9.32;8.20;;;21.80;96.70;;;;;;4961842;28;20039;-74
2021/09/12 07:23:03;;;;;;;9.02;8.00;;;21.70;96.70;;;;;;4957804;28;20050;-75
2021/09/12 07:25:32;;;;;;;9.50;8.50;;;21.80;96.70;;;;;;4961037;28;20631;-74
2021/09/12 07:28:00;;;;;;;9.38;8.32;;;21.90;96.70;;;;;;4962562;28;20082;-75
2021/09/12 07:30:29;;;;;;;10.57;9.07;;;21.90;96.70;;;;;;4966553;28;21085;-75
2021/09/12 07:32:57;;;;;;;10.10;8.93;;;22.10;96.70;;;;;;4963249;28;20047;-74
2021/09/12 07:35:26;;;;;;;11.35;9.05;;;22.10;96.70;;;;;;4963968;28;20047;-75
2021/09/12 07:37:56;;;;;;;10.13;9.20;;;22.20;96.70;;;;;;4965087;28;20142;-75
2021/09/12 07:40:28;;;;;;;14.75;9.20;;;22.20;96.70;;;;;;4966447;28;20098;-74
2021/09/12 07:42:57;;;;;;;10.93;9.88;;;22.40;96.70;;;;;;4965429;28;20093;-75
2021/09/12 07:45:25;;;;;;;10.77;9.73;;;22.40;96.70;;;;;;4968673;28;20047;-74
2021/09/12 07:47:54;;;;;;;13.43;10.45;;;22.40;96.70;;;;;;4969189;28;20076;-74
2021/09/12 07:50:22;;;;;;;11.88;10.25;;;22.50;96.70;;;;;;4961330;28;20061;-75
2021/09/12 07:52:50;;;;;;;12.13;10.73;;;22.60;96.70;;;;;;4965105;28;20047;-74
2021/09/12 07:55:20;;;;;;;11.02;9.27;;;22.60;96.70;;;;;;4962782;28;20046;-74
2021/09/12 07:57:49;;;;;;;12.88;10.18;;;22.70;96.70;;;;;;4961804;28;20062;-75
2021/09/12 08:00:17;;;;;;;11.27;10.27;;;22.80;96.70;;;;;;4965215;28;20045;-74
2021/09/12 08:02:46;;;;;;;12.85;10.63;;;22.90;96.70;;;;;;4962404;28;20057;-75
2021/09/12 08:05:15;;;;;;;11.90;10.70;;;23.00;96.70;;;;;;4965121;28;20039;-74
2021/09/12 08:07:43;;;;;;;12.13;10.85;;;23.10;96.70;;;;;;4960331;28;20056;-74
2021/09/12 08:10:11;;;;;;;10.68;9.65;;;23.10;96.70;;;;;;4967330;28;20042;-75
2021/09/12 08:12:41;;;;;;;10.82;9.80;;;23.20;96.70;;;;;;4959601;28;20547;-75
2021/09/12 08:15:10;;;;;;;12.65;9.88;;;23.30;96.70;;;;;;4964132;28;20049;-74
2021/09/12 08:17:38;;;;;;;11.25;10.20;;;23.40;96.70;;;;;;4963524;28;20078;-75
2021/09/12 08:20:07;;;;;;;11.25;9.60;;;23.50;96.70;;;;;;4962169;28;20052;-74
2021/09/12 08:22:35;;;;;;;12.57;9.07;;;23.60;96.70;;;;;;4966404;28;20093;-74
2021/09/12 08:25:05;;;;;;;11.32;9.52;;;23.70;96.70;;;;;;4952531;28;20046;-75
2021/09/12 08:27:33;;;;;;;11.70;10.15;;;23.70;96.70;;;;;;4961442;28;20382;-75
2021/09/12 08:30:03;;;;;;;10.60;9.70;;;23.80;96.70;;;;;;4967724;28;20355;-74
2021/09/12 08:32:32;;;;;;;10.55;9.55;;;23.80;96.70;;;;;;4959751;28;20462;-74
2021/09/12 08:35:00;;;;;;;9.25;8.13;;;23.90;96.70;;;;;;4964481;28;20074;-75
2021/09/12 08:37:28;;;;;;;10.18;9.00;;;24.00;96.70;;;;;;4958861;28;20090;-75
2021/09/12 08:39:57;;;;;;;9.85;8.85;;;24.10;96.70;;;;;;4962511;28;20050;-75
2021/09/12 08:42:26;;;;;;;9.93;8.93;;;24.20;96.70;;;;;;4984412;28;20471;-75
2021/09/12 08:44:54;;;;;;;9.40;8.45;;;24.30;96.70;;;;;;4961391;28;20047;-75
2021/09/12 08:47:26;;;;;;;9.40;8.40;;;24.50;96.70;;;;;;4959858;28;20520;-75
2021/09/12 08:49:54;;;;;;;9.95;8.93;;;24.40;96.70;;;;;;4958839;28;21681;-75
2021/09/12 08:52:22;;;;;;;9.82;8.82;;;24.40;96.70;;;;;;4945406;28;20058;-75
2021/09/12 08:54:50;;;;;;;11.98;9.35;;;24.40;96.70;;;;;;4957756;28;20058;-75
2021/09/12 08:57:18;;;;;;;10.23;8.77;;;24.50;96.70;;;;;;4961457;28;20129;-74
2021/09/12 08:59:49;;;;;;;10.48;9.23;;;24.60;96.70;;;;;;4968752;28;20047;-74
2021/09/12 09:02:26;;;;;;;9.75;8.75;;;24.70;96.70;;;;;;4959527;28;20077;-75
2021/09/12 09:05:01;;;;;;;9.60;8.68;;;24.80;96.70;;;;;;4958832;28;20058;-75
2021/09/12 09:07:31;;;;;;;19.20;10.18;;;24.80;96.70;;;;;;4952416;28;20042;-75
2021/09/12 09:10:00;;;;;;;11.75;9.00;;;24.90;96.70;;;;;;4945850;28;20049;-74
2021/09/12 09:12:32;;;;;;;9.68;8.77;;;24.90;96.70;;;;;;4963540;28;20042;-75
2021/09/12 09:15:03;;;;;;;9.57;8.18;;;25.00;96.70;;;;;;4957907;28;20067;-75
2021/09/12 09:17:36;;;;;;;8.93;8.02;;;25.20;96.70;;;;;;4971824;28;20118;-74
2021/09/12 09:20:07;;;;;;;8.80;7.90;;;25.20;96.70;;;;;;4942281;28;20043;-75
2021/09/12 09:22:36;;;;;;;9.75;7.60;;;25.30;96.70;;;;;;4946864;28;20525;-75
2021/09/12 09:25:10;;;;;;;11.65;7.53;;;25.30;96.70;;;;;;4947771;28;20531;-73
2021/09/12 09:27:53;;;;;;;10.05;6.80;;;25.30;96.70;;;;;;4960397;28;20046;-74
2021/09/12 09:30:22;;;;;;;9.25;7.72;;;25.40;96.70;;;;;;4966557;28;20436;-73
2021/09/12 09:32:52;;;;;;;7.90;7.20;;;25.40;96.10;;;;;;4957925;28;20267;-73
2021/09/12 09:35:24;;;;;;;7.78;6.80;;;25.60;95.70;;;;;;4958881;28;20089;-73
2021/09/12 09:37:53;;;;;;;8.05;7.35;;;25.70;95.10;;;;;;4947240;28;20050;-73
2021/09/12 09:40:22;;;;;;;8.70;7.13;;;25.70;94.90;;;;;;4958830;28;20047;-73
2021/09/12 09:42:50;;;;;;;7.78;7.00;;;25.80;95.70;;;;;;4958183;28;20086;-73
2021/09/12 09:45:20;;;;;;;10.20;7.05;;;25.90;95.00;;;;;;4960619;28;20051;-73
2021/09/12 09:47:52;;;;;;;7.55;6.80;;;26.20;94.20;;;;;;4961128;28;20055;-73
2021/09/12 09:50:22;;;;;;;7.63;6.93;;;26.30;93.40;;;;;;4956781;28;20461;-73
2021/09/12 09:52:52;;;;;;;7.72;7.03;;;26.20;93.30;;;;;;4959687;28;20116;-73
2021/09/12 09:55:22;;;;;;;7.45;6.75;;;26.20;93.40;;;;;;4959178;28;20042;-73
2021/09/12 09:57:52;;;;;;;7.97;6.82;;;26.20;93.00;;;;;;4953726;28;20042;-73
2021/09/12 10:00:22;;;;;;;7.80;6.95;;;26.20;92.50;;;;;;4960513;28;20043;-74
2021/09/12 10:02:52;;;;;;;7.78;6.97;;;26.20;92.30;;;;;;4962351;28;20046;-74
2021/09/12 10:05:22;;;;;;;9.25;7.38;;;26.30;91.30;;;;;;4965340;28;20051;-75
2021/09/12 10:07:50;;;;;;;7.25;6.45;;;26.50;91.20;;;;;;4958351;28;20624;-75
2021/09/12 10:10:22;;;;;;;7.07;6.43;;;26.50;91.30;;;;;;4961867;28;20564;-75
2021/09/12 10:12:53;;;;;;;8.40;6.90;;;26.70;91.20;;;;;;4959161;28;20047;-75
2021/09/12 10:15:23;;;;;;;8.35;6.20;;;26.80;90.30;;;;;;4962568;28;20122;-74
2021/09/12 10:17:53;;;;;;;7.18;6.47;;;26.90;89.70;;;;;;4959294;28;20101;-75
2021/09/12 10:20:24;;;;;;;7.70;6.38;;;27.00;89.40;;;;;;4963224;28;20050;-75
2021/09/12 10:22:54;;;;;;;7.05;6.35;;;27.00;89.30;;;;;;4961884;28;20050;-75
2021/09/12 10:25:22;;;;;;;8.15;6.55;;;27.20;87.70;;;;;;4961498;28;20525;-75
2021/09/12 10:27:59;;;;;;;7.07;6.20;;;27.30;87.90;;;;;;4954891;28;20047;-75
2021/09/12 10:30:30;;;;;;;7.53;6.53;;;27.60;87.10;;;;;;4974038;28;20701;-75
2021/09/12 10:33:19;;;;;;;7.63;6.70;;;27.60;87.00;;;;;;4986402;28;20043;-74
2021/09/12 10:35:53;;;;;;;7.35;5.97;;;27.80;86.90;;;;;;4961186;28;20051;-75
2021/09/12 10:38:26;;;;;;;6.55;5.78;;;27.80;86.20;;;;;;4968831;28;20039;-75
2021/09/12 10:41:10;;;;;;;6.60;5.90;;;27.80;85.60;;;;;;4945501;28;20505;-75
2021/09/12 10:43:44;;;;;;;9.40;6.47;;;28.10;85.00;;;;;;4960679;28;20421;-75
2021/09/12 10:46:31;;;;;;;7.45;6.28;;;28.10;85.20;;;;;;4972610;28;20429;-75
2021/09/12 10:49:28;;;;;;;6.88;5.35;;;28.40;84.10;;;;;;4956868;28;20062;-75
2021/09/12 10:51:56;;;;;;;13.70;11.50;;;28.60;83.30;;;;;;4942944;28;20062;-75
2021/09/12 10:54:24;;;;;;;7.47;6.65;;;28.60;83.40;;;;;;4977273;28;20490;-75
2021/09/12 10:57:05;;;;;;;6.95;6.28;;;28.70;83.10;;;;;;4957697;28;20054;-75
2021/09/12 10:59:33;;;;;;;6.72;5.88;;;29.00;83.10;;;;;;4960399;28;20050;-75
2021/09/12 11:02:02;;;;;;;6.10;5.50;;;28.90;82.20;;;;;;4958832;28;20254;-75
2021/09/12 11:04:33;;;;;;;5.68;5.18;;;29.10;81.50;;;;;;4965216;28;20126;-74
2021/09/12 11:07:03;;;;;;;6.05;5.38;;;29.30;80.10;;;;;;4980672;28;20113;-75
2021/09/12 11:09:32;;;;;;;7.40;5.80;;;29.20;81.00;;;;;;4960841;28;20071;-75
2021/09/12 11:12:02;;;;;;;7.03;5.38;;;29.20;80.20;;;;;;4966197;28;20042;-75
2021/09/12 11:14:33;;;;;;;6.03;5.40;;;29.40;80.10;;;;;;4962553;28;20048;-75
2021/09/12 11:17:08;;;;;;;5.40;4.88;;;29.40;80.30;;;;;;4946907;28;20050;-75
2021/09/12 11:19:38;;;;;;;5.45;4.93;;;29.60;79.40;;;;;;4961977;28;20217;-75
2021/09/12 11:22:11;;;;;;;5.07;4.65;;;29.80;78.00;;;;;;4956933;28;20073;-75
2021/09/12 11:24:39;;;;;;;6.90;4.88;;;30.10;77.50;;;;;;4963598;28;20038;-75
2021/09/12 11:27:07;;;;;;;4.93;4.50;;;30.20;76.70;;;;;;4977701;28;20053;-75
2021/09/12 11:29:37;;;;;;;8.27;7.47;;;30.20;76.30;;;;;;4958801;28;20073;-75
2021/09/12 11:32:07;;;;;;;5.57;4.55;;;30.10;75.20;;;;;;4962941;28;20039;-75
2021/09/12 11:34:38;;;;;;;4.80;4.40;;;30.20;75.30;;;;;;4961547;28;20043;-75
2021/09/12 11:37:08;;;;;;;4.50;4.10;;;30.30;74.80;;;;;;4975911;28;20494;-75
2021/09/12 11:39:38;;;;;;;6.22;3.80;;;30.30;73.00;;;;;;4947174;28;20106;-75
2021/09/12 11:42:08;;;;;;;4.50;4.10;;;30.60;72.70;;;;;;4963952;28;20043;-75
2021/09/12 11:44:38;;;;;;;4.90;4.50;;;30.60;73.20;;;;;;4961747;28;20481;-75
2021/09/12 11:47:07;;;;;;;3.70;3.40;;;30.50;72.50;;;;;;4960468;28;20050;-75
2021/09/12 11:49:35;;;;;;;3.78;3.47;;;30.20;70.50;;;;;;4960240;28;20066;-75
2021/09/12 11:52:06;;;;;;;5.40;4.20;;;30.50;70.00;;;;;;4959919;28;20079;-76
2021/09/12 11:54:38;;;;;;;4.10;3.70;;;30.40;71.10;;;;;;4955244;28;20054;-75
2021/09/12 11:57:07;;;;;;;4.55;4.05;;;30.60;71.00;;;;;;4963341;28;20501;-75
2021/09/12 11:59:39;;;;;;;4.18;3.78;;;30.70;70.80;;;;;;4963201;28;20031;-75
2021/09/12 12:02:10;;;;;;;5.18;3.47;;;30.90;69.80;;;;;;4964791;28;20137;-75
2021/09/12 12:04:40;;;;;;;4.30;3.17;;;30.90;69.80;;;;;;4960869;28;20139;-75
2021/09/12 12:07:10;;;;;;;3.45;3.15;;;31.30;68.80;;;;;;4957145;28;20050;-75
2021/09/12 12:09:40;;;;;;;5.75;3.65;;;31.60;67.80;;;;;;4963814;28;20445;-75
2021/09/12 12:12:11;;;;;;;3.85;3.10;;;31.60;66.40;;;;;;4964067;28;20043;-75
2021/09/12 12:14:48;;;;;;;5.22;3.70;;;31.60;66.50;;;;;;4963089;28;20408;-75
2021/09/12 12:17:18;;;;;;;3.05;2.85;;;31.50;66.30;;;;;;4980308;28;20036;-75
2021/09/12 12:19:46;;;;;;;3.53;3.22;;;31.50;66.90;;;;;;4944646;28;20086;-75
2021/09/12 12:22:18;;;;;;;4.20;3.80;;;31.60;66.50;;;;;;4954839;28;20445;-75
2021/09/12 12:24:50;;;;;;;3.30;3.00;;;31.70;65.80;;;;;;4956567;28;20082;-75
2021/09/12 12:27:19;;;;;;;3.83;3.20;;;31.70;66.70;;;;;;4962298;28;20046;-75
2021/09/12 12:29:56;;;;;;;4.80;3.60;;;31.70;65.40;;;;;;4961985;28;20117;-75
2021/09/12 12:32:25;;;;;;;3.70;3.40;;;31.80;65.70;;;;;;4941579;28;20433;-74
2021/09/12 12:34:56;;;;;;;3.85;3.47;;;31.90;66.30;;;;;;4973471;28;20062;-75
2021/09/12 12:37:42;;;;;;;5.00;3.75;;;31.90;65.10;;;;;;4965937;28;20066;-74
2021/09/12 12:40:13;;;;;;;3.80;3.50;;;31.90;66.10;;;;;;4959455;28;20129;-75
2021/09/12 12:42:43;;;;;;;3.97;3.42;;;31.90;65.40;;;;;;4958770;28;20039;-75
2021/09/12 12:45:23;;;;;;;6.95;3.45;;;31.90;65.20;;;;;;4960397;28;20074;-75
2021/09/12 12:47:53;;;;;;;4.10;3.63;;;31.90;65.40;;;;;;4963484;28;20041;-75
2021/09/12 12:50:32;;;;;;;4.47;3.58;;;32.00;65.50;;;;;;4975365;28;20580;-75
2021/09/12 12:53:26;;;;;;;4.85;3.72;;;32.10;65.40;;;;;;4951474;28;20062;-75
2021/09/12 12:55:56;;;;;;;4.03;3.47;;;32.10;65.10;;;;;;4951975;28;20058;-75
2021/09/12 12:58:25;;;;;;;4.10;3.22;;;32.00;64.80;;;;;;4963477;28;20504;-75
2021/09/12 13:00:55;;;;;;;3.67;3.38;;;32.10;65.80;;;;;;4960639;28;20386;-75
2021/09/12 13:03:24;;;;;;;5.10;3.58;;;32.10;65.70;;;;;;4954642;28;20050;-75
2021/09/12 13:05:54;;;;;;;4.00;3.65;;;32.30;65.30;;;;;;4957759;28;20493;-75
2021/09/12 13:08:27;;;;;;;5.28;3.45;;;32.30;64.90;;;;;;4962679;28;20129;-75
2021/09/12 13:10:56;;;;;;;3.58;3.28;;;32.50;66.20;;;;;;4963002;28;20047;-75
2021/09/12 13:13:24;;;;;;;5.70;3.78;;;32.70;65.80;;;;;;4976683;28;20311;-75
2021/09/12 13:15:52;;;;;;;3.85;3.55;;;32.70;65.10;;;;;;4966970;28;20046;-75
2021/09/12 13:18:21;;;;;;;4.00;3.60;;;32.60;65.30;;;;;;4946059;28;20146;-75
2021/09/12 13:20:52;;;;;;;3.55;3.00;;;32.60;64.50;;;;;;4955181;28;20132;-75